DNEN

Akanu Ibiam International Airport

Enegu, Nigeria
METAR DNEN 250500Z 29004KT 8000 -RA BKN008 22/21 Q1010
Observed Flight Rules
May-25 @ 05:00 UTC (21 minutes ago) Instrument Flight Rules
Wind Visibility Clouds Conditions
290° at 4 knots 7,998 meters
  • Broken at 800' AGL
  • Light Rain
Temperatures Readings
Current 22°C / 72°F
Dewpoint 21°C / 70°F
Humidity 94%
Altimeter 29.82" Hg
Pressure 1010 hPa
Elevation 137
METAR DNEN 250500Z 29004KT 8000 -RA BKN008 22/21 Q1010
Observed Flight Rules
May-25 @ 05:00 UTC
(21 minutes ago)
IFR
Wind Visibility
290° at 4 knots 7,998 meters
Clouds
  • Broken at 800' AGL
Conditions
  • Light Rain
Temperature Dewpoint
22°C / 72°F 21°C / 70°F
Humidity Altimeter Pressure
94% 29.82" Hg 1010 hPa